Bei Facebook empfehlenBei Twitter postenGoogle plusPinterest

Das Wetter im Erzgebirge am 06.02.2016

Wetter und Klima am 06.02.2016 Holzhau im Erzgebirge (630m ü.NN)
Letzte gemessene Temperatur und Uhrzeit der Messung23:45:00 Uhr3.00 °C
Temperatur (Maximum / Höchstwert) und Uhrzeit der Messung13:00:00 Uhr7.10 °C
Temperatur (Minimum / Tiefstwert) und Uhrzeit der Messung06:30:001.30 °C
Errechneter Absolutwert der Temperaturschwankungen zwischen Tmin und Tmax des Tages5.80 K
Errechnete Tagesmitteltemperatur3.50313 °C
Gesamt - Niederschlag des Tages (in flüssiger Form)0.51 Liter / m²
Luftdruck (Maximum / Höchstwert) und Zeitpunkt der Messung00:15:00 Uhr1017.70 hPa
Luftdruck (Minimum / Tiefstwert) und Zeitpunkt der Messung23:45:00 Uhr1008.00 hPa
Errechneter Absolutwert der Luftdruckschwankungen des Tages9.70 hPa
Höchste gemessene Windgeschwindigkeit und Uhrzeit der Messung13:15:00 Uhr12.60 km/h
Errechnete Windhäufigkeit in Relation zu den Messwerten des Tages32.29167 %
Niedrigste Windkühle (Windchill) und Zeitpunkt der Messung06:00:00 Uhr-0.80 °C
Taupunkt (Maximum / Höchstwert) und Uhrzeit der Messung11:45:00 Uhr5.80 °C
Taupunkt (Minimum / Tiefstwert) und Uhrzeit der Messung20:15:000.50 °C
Anzahl der automatisch eingelesenen Messwerte 96

Detaillierte Wetter- und Klima- Messwerte für den 06.02.2016 in Holzhau im Erzgebirge (630m ü.NN)
ZeitTemperaturLuftdruckRel. LuftfeuchteWindWindrichtungWindchillTaupunktNiederschlag l/m²
23:45:003.00 °C1008.00 hPa91.00 %1.70 °C0.51
23:30:003.10 °C1008.00 hPa91.00 %1.80 °C0.51
23:15:003.30 °C1008.10 hPa91.00 %2.00 °C0.51
23:00:003.80 °C1008.70 hPa91.00 %2.50 °C0.51
22:45:003.90 °C1008.70 hPa91.00 %1.80 km/hONO3.90 °C2.60 °C0.51
22:30:004.20 °C1009.00 hPa92.00 %1.44 km/hSSO4.20 °C3.00 °C0.51
22:15:003.90 °C1009.00 hPa92.00 %8.64 km/hSSO1.70 °C2.70 °C0.51
22:00:003.60 °C1009.30 hPa92.00 %2.40 °C0.51
21:45:003.10 °C1009.60 hPa92.00 %3.60 km/hSO3.10 °C1.90 °C0.51
21:30:003.10 °C1009.80 hPa92.00 %2.88 km/hSO3.10 °C1.90 °C0.51
21:15:002.80 °C1009.80 hPa92.00 %1.60 °C0.51
21:00:002.40 °C1009.90 hPa92.00 %1.20 °C0.51
20:45:002.20 °C1009.90 hPa92.00 %1.00 °C0.51
20:30:002.10 °C1010.00 hPa92.00 %0.90 °C0.51
20:15:001.80 °C1010.10 hPa91.00 %0.50 °C0.51
20:00:001.90 °C1010.50 hPa91.00 %1.44 km/hSO1.90 °C0.60 °C0.51
19:45:002.20 °C1010.40 hPa91.00 %0.90 °C0.51
19:30:002.40 °C1010.60 hPa91.00 %1.10 °C0.51
19:15:002.30 °C1010.70 hPa90.00 %0.80 °C0.51
19:00:002.70 °C1010.90 hPa91.00 %1.40 °C0.51
18:45:002.70 °C1011.00 hPa90.00 %1.20 °C0.51
18:30:002.60 °C1011.10 hPa90.00 %1.10 °C0.51
18:15:002.60 °C1011.30 hPa89.00 %1.00 °C0.51
18:00:002.70 °C1011.10 hPa89.00 %2.88 km/hNNO2.70 °C1.10 °C0.51
17:45:002.90 °C1011.20 hPa89.00 %4.32 km/hOSO2.90 °C1.30 °C0.51
17:30:003.50 °C1011.30 hPa88.00 %1.70 °C0.51
17:15:003.80 °C1011.40 hPa87.00 %1.80 °C0.51
17:00:003.90 °C1011.30 hPa87.00 %1.90 °C0.51
16:45:004.40 °C1011.60 hPa86.00 %2.30 °C0.51
16:30:005.00 °C1011.80 hPa86.00 %2.90 °C0.51
16:15:005.50 °C1011.80 hPa86.00 %3.30 °C0.51
16:00:005.90 °C1011.60 hPa85.00 %3.60 °C0.51
15:45:006.20 °C1011.60 hPa86.00 %4.00 °C0.51
15:30:006.40 °C1011.60 hPa86.00 %4.20 °C0.51
15:15:006.40 °C1012.00 hPa87.00 %4.40 °C0.51
15:00:005.90 °C1012.10 hPa87.00 %3.90 °C0.51
14:45:005.80 °C1012.20 hPa86.00 %3.60 °C0.51
14:30:006.10 °C1012.20 hPa86.00 %7.56 km/hSSW4.50 °C3.90 °C0.51
14:15:006.40 °C1012.30 hPa87.00 %3.60 km/hSSO6.40 °C4.40 °C0.51
14:00:006.50 °C1012.50 hPa87.00 %4.50 °C0.51
13:45:006.50 °C1012.60 hPa87.00 %4.50 °C0.51
13:30:006.60 °C1012.90 hPa87.00 %4.32 km/hWNW6.60 °C4.60 °C0.51
13:15:006.80 °C1013.10 hPa88.00 %12.60 km/hSW4.30 °C5.00 °C0.51
13:00:007.10 °C1013.30 hPa89.00 %9.36 km/hSSO5.30 °C5.40 °C0.51
12:45:007.10 °C1013.40 hPa90.00 %2.52 km/hSSO7.10 °C5.60 °C0.51
12:30:007.10 °C1013.40 hPa91.00 %3.60 km/hSSO7.10 °C5.70 °C0.51
12:15:006.80 °C1013.70 hPa92.00 %5.60 °C0.51
12:00:006.90 °C1013.80 hPa92.00 %5.70 °C0.51
11:45:006.90 °C1013.90 hPa93.00 %9.36 km/hS5.10 °C5.80 °C0.51
11:30:006.60 °C1014.00 hPa94.00 %5.70 °C0.51
11:15:006.20 °C1014.30 hPa95.00 %5.50 °C0.51
11:00:005.40 °C1014.70 hPa95.00 %4.70 °C0.51
10:45:004.60 °C1014.50 hPa95.00 %9.36 km/hSSO2.30 °C3.90 °C0.51
10:30:003.90 °C1014.90 hPa95.00 %3.20 °C0.51
10:15:003.60 °C1015.00 hPa95.00 %2.90 °C0.51
10:00:003.80 °C1015.00 hPa95.00 %3.10 °C0.51
09:45:003.90 °C1015.00 hPa95.00 %3.20 °C0.51
09:30:003.60 °C1015.10 hPa95.00 %2.90 °C0.51
09:15:003.20 °C1015.30 hPa95.00 %10.80 km/hSSO0.30 °C2.50 °C0.51
09:00:002.60 °C1015.00 hPa95.00 %3.24 km/hS2.60 °C1.90 °C0.51
08:45:002.40 °C1015.20 hPa95.00 %1.70 °C0.51
08:30:002.20 °C1015.20 hPa95.00 %1.50 °C0.51
08:15:002.10 °C1015.10 hPa95.00 %1.40 °C0.51
08:00:002.00 °C1015.20 hPa95.00 %7.20 km/hONO-0.10 °C1.30 °C 
07:45:001.90 °C1015.10 hPa95.00 %1.20 °C 
07:30:001.80 °C1015.10 hPa95.00 %5.40 km/hSSO0.30 °C1.10 °C 
07:15:001.60 °C1015.10 hPa95.00 %5.76 km/hSSO-0.10 °C0.90 °C 
07:00:001.50 °C1015.10 hPa95.00 %1.80 km/hOSO1.50 °C0.80 °C 
06:45:001.40 °C1015.20 hPa95.00 %2.52 km/hNO1.40 °C0.70 °C 
06:30:001.30 °C1015.40 hPa95.00 %0.60 °C 
06:15:001.50 °C1015.70 hPa95.00 %0.80 °C 
06:00:001.60 °C1015.80 hPa95.00 %7.92 km/hONO-0.80 °C0.90 °C 
05:45:001.50 °C1015.90 hPa95.00 %0.80 °C 
05:30:001.40 °C1016.10 hPa95.00 %2.52 km/hOSO1.40 °C0.70 °C 
05:15:001.60 °C1016.30 hPa95.00 %3.60 km/hOSO1.60 °C0.90 °C 
05:00:001.60 °C1016.30 hPa95.00 %2.52 km/hOSO1.60 °C0.90 °C 
04:45:001.80 °C1016.40 hPa94.00 %0.90 °C 
04:30:001.90 °C1016.60 hPa95.00 %1.20 °C 
04:15:001.90 °C1016.60 hPa95.00 %1.20 °C 
04:00:001.90 °C1016.60 hPa94.00 %1.00 °C 
03:45:001.90 °C1016.60 hPa94.00 %1.00 °C 
03:30:001.80 °C1016.70 hPa94.00 %0.90 °C 
03:15:001.90 °C1016.80 hPa94.00 %4.68 km/hOSO1.90 °C1.00 °C 
03:00:002.10 °C1016.80 hPa94.00 %1.20 °C 
02:45:002.40 °C1016.90 hPa94.00 %1.08 km/hO2.40 °C1.50 °C 
02:30:002.40 °C1017.10 hPa94.00 %1.50 °C 
02:15:002.50 °C1017.00 hPa94.00 %2.88 km/hOSO2.50 °C1.60 °C 
02:00:002.40 °C1017.00 hPa94.00 %1.50 °C 
01:45:002.50 °C1017.10 hPa94.00 %1.60 °C 
01:30:002.70 °C1017.40 hPa94.00 %1.80 °C 
01:15:002.90 °C1017.30 hPa94.00 %2.00 °C 
01:00:002.90 °C1017.30 hPa94.00 %2.00 °C 
00:45:002.70 °C1017.40 hPa94.00 %1.80 °C 
00:30:002.60 °C1017.50 hPa94.00 %1.70 °C 
00:15:002.60 °C1017.70 hPa94.00 %1.70 °C 
00:00:002.90 °C1017.70 hPa94.00 %2.00 °C 

Permanenter Link zu dieser Seite: Wetter im Erzgebirge am 06.02.2016
Performance-Info: Die Erstellung der Seite / Statistik(en) / Tabelle(n) erforderte 5 Datenbankserver-Abfrage(n) und dauerte 127 Millisekunden. (Dieser Messwert ist von der Gesamt-Auslastung des Servers abhängig.)
Erzgebirge - Wetter | Erzgebirge - Wetter (Mobilgeräte) | Komplette Klimadatenbank